createdAt,value
2018-08-17T00:00:22.012Z,20.74
2018-08-17T00:01:21.991Z,20.66
2018-08-17T00:02:21.968Z,20.58
2018-08-17T00:03:21.963Z,20.56
2018-08-17T00:04:21.921Z,20.51
2018-08-17T00:05:21.951Z,20.55
2018-08-17T00:06:21.885Z,20.51
2018-08-17T00:07:21.845Z,20.47
2018-08-17T00:08:21.820Z,20.51
2018-08-17T00:09:21.796Z,20.55
2018-08-17T00:10:21.772Z,20.48
2018-08-17T00:11:21.746Z,20.48
2018-08-17T00:12:21.725Z,20.40
2018-08-17T00:13:21.706Z,20.43
2018-08-17T00:14:21.672Z,20.32
2018-08-17T00:15:21.645Z,20.37
2018-08-17T00:16:21.631Z,20.41
2018-08-17T00:17:21.607Z,20.44
2018-08-17T00:18:21.588Z,20.34
2018-08-17T00:19:21.555Z,20.44
2018-08-17T00:20:21.535Z,20.50
2018-08-17T00:21:21.511Z,20.47
2018-08-17T00:22:21.486Z,20.51
2018-08-17T00:23:21.461Z,20.55
2018-08-17T00:24:21.429Z,20.58
2018-08-17T00:25:21.407Z,20.56
2018-08-17T00:26:21.385Z,20.60
2018-08-17T00:27:21.359Z,20.66
2018-08-17T00:28:21.398Z,20.62
2018-08-17T00:29:21.312Z,20.66
2018-08-17T00:30:21.285Z,20.63
2018-08-17T00:31:21.266Z,20.72
2018-08-17T00:32:21.231Z,20.72
2018-08-17T00:33:21.218Z,20.81
2018-08-17T00:34:21.184Z,20.80
2018-08-17T00:35:21.161Z,20.77
2018-08-17T00:36:21.142Z,20.74
2018-08-17T00:37:21.117Z,20.80
2018-08-17T00:38:21.090Z,20.80
2018-08-17T00:39:21.066Z,20.77
2018-08-17T00:40:21.049Z,20.87
2018-08-17T00:41:21.011Z,20.92
2018-08-17T00:42:20.996Z,21.03
2018-08-17T00:43:21.005Z,20.97
2018-08-17T00:44:20.938Z,21.07
2018-08-17T00:45:20.916Z,21.07
2018-08-17T00:46:20.916Z,21.14
2018-08-17T00:47:20.871Z,21.17
2018-08-17T00:48:20.847Z,21.22
2018-08-17T00:49:20.817Z,21.29
2018-08-17T00:50:20.800Z,21.20
2018-08-17T00:51:20.767Z,21.21
2018-08-17T00:52:20.759Z,21.18
2018-08-17T00:53:20.724Z,21.09
2018-08-17T00:54:20.697Z,21.02
2018-08-17T00:55:20.671Z,21.12
2018-08-17T00:56:20.653Z,21.11
2018-08-17T00:57:20.629Z,21.07
2018-08-17T00:58:20.607Z,21.12
2018-08-17T00:59:20.572Z,21.20
2018-08-17T01:00:20.556Z,21.15
2018-08-17T01:01:20.528Z,21.21
2018-08-17T01:02:20.504Z,21.24
2018-08-17T01:03:20.476Z,21.18
2018-08-17T01:04:20.456Z,21.20
2018-08-17T01:05:20.438Z,21.15
2018-08-17T01:06:20.404Z,21.12
2018-08-17T01:07:20.385Z,21.11
2018-08-17T01:08:20.380Z,21.18
2018-08-17T01:09:20.334Z,21.22
2018-08-17T01:10:20.309Z,21.15
2018-08-17T01:11:20.285Z,21.12
2018-08-17T01:12:20.264Z,21.17
2018-08-17T01:13:20.235Z,21.17
2018-08-17T01:14:20.221Z,21.17
2018-08-17T01:15:20.186Z,21.22
2018-08-17T01:16:20.159Z,21.17
2018-08-17T01:17:20.143Z,21.14
2018-08-17T01:18:20.117Z,21.03
2018-08-17T01:19:20.086Z,21.11
2018-08-17T01:20:20.064Z,21.21
2018-08-17T01:21:20.042Z,21.20
2018-08-17T01:22:20.012Z,21.18
2018-08-17T01:23:19.997Z,21.18
2018-08-17T01:24:19.963Z,21.27
2018-08-17T01:25:19.940Z,21.17
2018-08-17T01:26:19.942Z,21.18
2018-08-17T01:27:19.893Z,21.14
2018-08-17T01:28:19.873Z,21.20
2018-08-17T01:29:19.839Z,21.14
2018-08-17T01:30:19.819Z,21.20
2018-08-17T01:31:19.799Z,21.15
2018-08-17T01:32:19.764Z,21.03
2018-08-17T01:33:19.743Z,21.03
2018-08-17T01:34:19.724Z,21.06
2018-08-17T01:35:19.698Z,21.02
2018-08-17T01:36:19.681Z,21.06
2018-08-17T01:37:19.653Z,21.11
2018-08-17T01:38:19.622Z,21.14
2018-08-17T01:39:19.601Z,21.12
2018-08-17T01:40:19.573Z,21.07
2018-08-17T01:41:19.546Z,21.03
2018-08-17T01:42:19.531Z,21.12
2018-08-17T01:43:19.499Z,21.07
2018-08-17T01:44:19.481Z,21.07
2018-08-17T01:45:19.451Z,21.12
2018-08-17T01:46:19.426Z,21.05
2018-08-17T01:47:19.411Z,21.06
2018-08-17T01:48:19.382Z,21.07
2018-08-17T01:49:19.353Z,21.07
2018-08-17T01:50:19.333Z,21.05
2018-08-17T01:51:19.310Z,21.09
2018-08-17T01:52:19.304Z,21.05
2018-08-17T01:53:19.342Z,21.05
2018-08-17T01:54:19.311Z,21.09
2018-08-17T01:55:19.228Z,21.00
2018-08-17T01:56:19.301Z,21.06
2018-08-17T01:57:19.179Z,21.12
2018-08-17T01:58:19.201Z,21.18
2018-08-17T01:59:19.156Z,21.05
2018-08-17T02:00:19.184Z,21.17
2018-08-17T02:01:19.060Z,21.03
2018-08-17T02:02:19.037Z,21.06
2018-08-17T02:03:19.007Z,21.07
2018-08-17T02:04:18.987Z,21.07
2018-08-17T02:05:18.974Z,21.11
2018-08-17T02:06:18.938Z,21.02
2018-08-17T02:07:18.912Z,20.96
2018-08-17T02:08:18.896Z,20.93
2018-08-17T02:09:18.871Z,20.87
2018-08-17T02:10:18.841Z,20.90
2018-08-17T02:11:18.818Z,20.78
2018-08-17T02:12:18.787Z,20.81
2018-08-17T02:13:18.771Z,20.78
2018-08-17T02:14:18.741Z,20.80
2018-08-17T02:15:18.713Z,20.84
2018-08-17T02:16:18.700Z,20.80
2018-08-17T02:17:18.663Z,20.77
2018-08-17T02:18:18.649Z,20.74
2018-08-17T02:19:18.615Z,20.80
2018-08-17T02:20:18.600Z,20.70
2018-08-17T02:21:18.565Z,20.67
2018-08-17T02:22:18.544Z,20.70
2018-08-17T02:23:18.513Z,20.77
2018-08-17T02:24:18.525Z,20.78
2018-08-17T02:25:18.465Z,20.67
2018-08-17T02:26:18.449Z,20.66
2018-08-17T02:27:18.424Z,20.63
2018-08-17T02:28:18.401Z,20.60
2018-08-17T02:29:18.369Z,20.56
2018-08-17T02:30:18.342Z,20.55
2018-08-17T02:31:18.322Z,20.51
2018-08-17T02:32:18.288Z,20.51
2018-08-17T02:33:18.276Z,20.51
2018-08-17T02:34:18.253Z,20.44
2018-08-17T02:35:18.216Z,20.47
2018-08-17T02:36:18.215Z,20.50
2018-08-17T02:37:18.163Z,20.50
2018-08-17T02:38:18.146Z,20.50
2018-08-17T02:39:18.116Z,20.58
2018-08-17T02:40:18.088Z,20.50
2018-08-17T02:41:18.067Z,20.43
2018-08-17T02:42:18.045Z,20.40
2018-08-17T02:43:18.021Z,20.32
2018-08-17T02:44:17.988Z,20.19
2018-08-17T02:45:17.974Z,20.10
2018-08-17T02:46:17.942Z,20.18
2018-08-17T02:47:17.919Z,20.14
2018-08-17T02:48:17.890Z,20.24
2018-08-17T02:49:17.875Z,20.19
2018-08-17T02:50:17.842Z,20.16
2018-08-17T02:51:17.822Z,20.18
2018-08-17T02:52:17.793Z,20.21
2018-08-17T02:53:17.765Z,20.16
2018-08-17T02:54:17.739Z,20.11
2018-08-17T02:55:17.712Z,20.14
2018-08-17T02:56:17.687Z,20.19
2018-08-17T02:57:17.667Z,20.24
2018-08-17T02:58:17.639Z,20.09
2018-08-17T02:59:17.618Z,20.13
2018-08-17T03:00:17.589Z,20.10
2018-08-17T03:01:17.565Z,20.11
2018-08-17T03:02:17.553Z,20.11
2018-08-17T03:03:17.513Z,20.09
2018-08-17T03:04:17.490Z,20.00
2018-08-17T03:05:17.488Z,20.07
2018-08-17T03:06:17.436Z,20.06
2018-08-17T03:07:17.408Z,20.02
2018-08-17T03:08:17.394Z,20.07
2018-08-17T03:09:17.365Z,20.07
2018-08-17T03:10:17.341Z,19.96
2018-08-17T03:11:17.310Z,19.99
2018-08-17T03:12:17.293Z,20.00
2018-08-17T03:13:17.266Z,20.07
2018-08-17T03:14:17.234Z,20.09
2018-08-17T03:15:17.211Z,20.04
2018-08-17T03:16:17.191Z,20.07
2018-08-17T03:17:17.168Z,20.03
2018-08-17T03:18:17.134Z,20.03
2018-08-17T03:19:17.114Z,20.04
2018-08-17T03:20:17.100Z,20.07
2018-08-17T03:21:17.060Z,20.11
2018-08-17T03:22:17.041Z,20.06
2018-08-17T03:23:17.008Z,20.11
2018-08-17T03:24:16.987Z,20.16
2018-08-17T03:25:16.959Z,20.13
2018-08-17T03:26:16.929Z,20.13
2018-08-17T03:27:16.903Z,20.04
2018-08-17T03:28:16.886Z,20.13
2018-08-17T03:29:16.852Z,20.07
2018-08-17T03:30:16.843Z,20.04
2018-08-17T03:31:16.803Z,20.07
2018-08-17T03:32:16.790Z,20.09
2018-08-17T03:33:16.752Z,20.11
2018-08-17T03:34:16.736Z,20.09
2018-08-17T03:35:16.705Z,20.02
2018-08-17T03:36:16.682Z,20.11
2018-08-17T03:37:16.695Z,20.10
2018-08-17T03:38:16.698Z,20.13
2018-08-17T03:39:16.602Z,20.09
2018-08-17T03:40:16.599Z,20.07
2018-08-17T03:41:16.566Z,20.10
2018-08-17T03:42:16.528Z,20.03
2018-08-17T03:43:16.512Z,20.13
2018-08-17T03:44:16.475Z,20.11
2018-08-17T03:45:16.455Z,20.03
2018-08-17T03:46:16.429Z,20.00
2018-08-17T03:47:16.406Z,20.07
2018-08-17T03:48:16.373Z,19.95
2018-08-17T03:49:16.364Z,20.10
2018-08-17T03:50:16.324Z,20.10
2018-08-17T03:51:16.302Z,20.03
2018-08-17T03:52:16.275Z,20.07
2018-08-17T03:53:16.256Z,19.99
2018-08-17T03:54:16.223Z,19.88
2018-08-17T03:55:16.217Z,19.96
2018-08-17T03:56:16.168Z,19.91
2018-08-17T03:57:16.147Z,19.99
2018-08-17T03:58:16.124Z,19.88
2018-08-17T03:59:16.092Z,19.92
2018-08-17T04:00:16.077Z,19.92
2018-08-17T04:01:16.046Z,19.91
2018-08-17T04:02:16.041Z,19.88
2018-08-17T04:03:15.997Z,19.85
2018-08-17T04:04:15.970Z,19.82
2018-08-17T04:05:15.942Z,19.85
2018-08-17T04:06:15.925Z,19.88
2018-08-17T04:07:15.897Z,19.86
2018-08-17T04:08:15.874Z,19.86
2018-08-17T04:09:15.852Z,19.88
2018-08-17T04:10:15.817Z,19.88
2018-08-17T04:11:15.794Z,19.84
2018-08-17T04:12:15.767Z,19.77
2018-08-17T04:13:15.739Z,19.76
2018-08-17T04:14:15.722Z,19.73
2018-08-17T04:15:15.693Z,19.81
2018-08-17T04:16:15.670Z,19.76
2018-08-17T04:17:15.640Z,19.77
2018-08-17T04:18:15.621Z,19.76
2018-08-17T04:19:15.608Z,19.74
2018-08-17T04:20:15.561Z,19.77
2018-08-17T04:21:15.542Z,19.79
2018-08-17T04:22:15.520Z,19.76
2018-08-17T04:23:15.501Z,19.79
2018-08-17T04:24:15.470Z,19.79
2018-08-17T04:25:15.442Z,19.77
2018-08-17T04:26:15.417Z,19.77
2018-08-17T04:27:15.393Z,19.77
2018-08-17T04:28:15.365Z,19.74
2018-08-17T04:29:15.345Z,19.73
2018-08-17T04:30:15.311Z,19.85
2018-08-17T04:31:15.293Z,19.86
2018-08-17T04:32:15.261Z,19.91
2018-08-17T04:33:15.240Z,19.89
2018-08-17T04:34:15.210Z,19.89
2018-08-17T04:35:15.205Z,19.89
2018-08-17T04:36:15.160Z,19.86
2018-08-17T04:37:15.138Z,19.88
2018-08-17T04:38:15.113Z,19.85
2018-08-17T04:39:15.093Z,19.88
2018-08-17T04:40:15.057Z,19.91
2018-08-17T04:41:15.040Z,19.94
2018-08-17T04:42:15.006Z,19.92
2018-08-17T04:43:14.983Z,19.94
2018-08-17T04:44:14.964Z,19.91
2018-08-17T04:45:14.931Z,19.88
2018-08-17T04:46:14.917Z,19.91
2018-08-17T04:47:14.887Z,19.99
2018-08-17T04:48:14.860Z,19.92
2018-08-17T04:49:14.845Z,19.99
2018-08-17T04:50:14.809Z,20.00
2018-08-17T04:51:14.781Z,19.95
2018-08-17T04:52:14.760Z,20.00
2018-08-17T04:53:14.731Z,19.96
2018-08-17T04:54:14.709Z,20.03
2018-08-17T04:55:14.678Z,20.09
2018-08-17T04:56:14.664Z,19.96
2018-08-17T04:57:14.630Z,20.07
2018-08-17T04:58:14.611Z,20.09
2018-08-17T04:59:14.586Z,20.13
2018-08-17T05:00:14.572Z,20.09
2018-08-17T05:01:14.528Z,20.13
2018-08-17T05:02:14.511Z,20.19
2018-08-17T05:03:14.504Z,20.24
2018-08-17T05:04:14.458Z,20.22
2018-08-17T05:05:14.426Z,20.22
2018-08-17T05:06:14.411Z,20.21
2018-08-17T05:07:14.379Z,20.16
2018-08-17T05:08:14.358Z,20.26
2018-08-17T05:09:14.332Z,20.21
2018-08-17T05:10:14.303Z,20.22
2018-08-17T05:11:14.282Z,20.25
2018-08-17T05:12:14.250Z,20.28
2018-08-17T05:13:14.228Z,20.24
2018-08-17T05:14:14.209Z,20.26
2018-08-17T05:15:14.211Z,20.34
2018-08-17T05:16:14.151Z,20.26
2018-08-17T05:17:14.125Z,20.29
2018-08-17T05:18:14.107Z,20.22
2018-08-17T05:19:14.078Z,20.21
2018-08-17T05:20:14.055Z,20.21
2018-08-17T05:21:14.026Z,20.14
2018-08-17T05:22:14.005Z,20.13
2018-08-17T05:23:14.035Z,20.13
2018-08-17T05:24:13.948Z,20.06
2018-08-17T05:25:13.930Z,19.99
2018-08-17T05:26:13.904Z,19.88
2018-08-17T05:27:13.873Z,19.95
2018-08-17T05:28:13.856Z,19.91
2018-08-17T05:29:13.829Z,19.96
2018-08-17T05:30:13.799Z,19.99
2018-08-17T05:31:13.790Z,20.09
2018-08-17T05:32:13.748Z,20.04
2018-08-17T05:33:13.730Z,20.11
2018-08-17T05:34:13.710Z,20.11
2018-08-17T05:35:13.678Z,20.06
2018-08-17T05:36:13.648Z,20.14
2018-08-17T05:37:13.628Z,20.09
2018-08-17T05:38:13.599Z,20.11
2018-08-17T05:39:13.569Z,20.06
2018-08-17T05:40:13.555Z,20.11
2018-08-17T05:41:13.560Z,20.07
2018-08-17T05:42:13.508Z,20.07
2018-08-17T05:43:13.476Z,20.09
2018-08-17T05:44:13.450Z,20.02
2018-08-17T05:45:13.468Z,20.02
2018-08-17T05:46:13.401Z,19.91
2018-08-17T05:47:13.368Z,19.96
2018-08-17T05:48:13.362Z,19.86
2018-08-17T05:49:13.330Z,19.89
2018-08-17T05:50:13.789Z,19.73
2018-08-17T05:51:13.271Z,19.79
2018-08-17T05:52:13.250Z,19.76
2018-08-17T05:53:13.223Z,19.77
2018-08-17T05:54:13.198Z,19.79
2018-08-17T05:55:13.189Z,19.67
2018-08-17T05:56:13.147Z,19.71
2018-08-17T05:57:13.121Z,19.71
2018-08-17T05:58:13.101Z,19.76
2018-08-17T05:59:13.072Z,19.73
2018-08-17T06:00:13.047Z,19.64
2018-08-17T06:01:13.016Z,19.69
2018-08-17T06:02:13.001Z,19.66
2018-08-17T06:03:12.965Z,19.71
2018-08-17T06:04:12.948Z,19.58
2018-08-17T06:05:12.920Z,19.55
2018-08-17T06:06:12.893Z,19.36
2018-08-17T06:07:12.867Z,19.24
2018-08-17T06:08:12.842Z,18.93
2018-08-17T06:09:12.827Z,18.93
2018-08-17T06:10:12.796Z,18.88
2018-08-17T06:11:12.904Z,18.89
2018-08-17T06:12:12.747Z,18.71
2018-08-17T06:13:12.716Z,18.70
2018-08-17T06:14:12.694Z,18.74
2018-08-17T06:15:12.661Z,18.68
2018-08-17T06:16:12.653Z,18.70
2018-08-17T06:17:12.612Z,18.60
2018-08-17T06:18:12.598Z,18.63
2018-08-17T06:19:12.619Z,18.60
2018-08-17T06:20:12.534Z,18.41
2018-08-17T06:21:12.515Z,18.34
2018-08-17T06:22:12.486Z,18.34
2018-08-17T06:23:12.467Z,18.16
2018-08-17T06:24:12.436Z,18.10
2018-08-17T06:25:12.410Z,18.10
2018-08-17T06:26:12.393Z,17.92
2018-08-17T06:27:12.362Z,17.82
2018-08-17T06:28:12.334Z,17.89
2018-08-17T06:29:12.313Z,17.85
2018-08-17T06:30:12.283Z,17.74
2018-08-17T06:31:12.265Z,17.79
2018-08-17T06:32:12.231Z,17.65
2018-08-17T06:33:12.212Z,17.72
2018-08-17T06:34:12.181Z,17.70
2018-08-17T06:35:12.168Z,17.68
2018-08-17T06:36:12.141Z,17.70
2018-08-17T06:37:12.170Z,17.71
2018-08-17T06:38:12.081Z,17.82
2018-08-17T06:39:12.055Z,17.71
2018-08-17T06:40:12.031Z,17.71
2018-08-17T06:41:12.008Z,17.82
2018-08-17T06:42:11.976Z,17.86
2018-08-17T06:43:11.957Z,17.86
2018-08-17T06:44:11.929Z,17.87
2018-08-17T06:45:11.913Z,17.92
2018-08-17T06:46:11.880Z,17.87
2018-08-17T06:47:11.848Z,17.85
2018-08-17T06:48:11.831Z,17.79
2018-08-17T06:49:11.805Z,17.83
2018-08-17T06:50:11.774Z,17.82
2018-08-17T06:51:11.846Z,17.83
2018-08-17T06:52:11.726Z,17.83
2018-08-17T06:53:11.699Z,17.86
2018-08-17T06:54:11.670Z,17.95
2018-08-17T06:55:11.648Z,17.98
2018-08-17T06:56:11.627Z,17.98
2018-08-17T06:57:11.661Z,18.00
2018-08-17T06:58:11.571Z,18.07
2018-08-17T06:59:11.542Z,18.03
2018-08-17T07:00:11.543Z,18.04
2018-08-17T07:01:11.496Z,18.11
2018-08-17T07:02:11.468Z,18.18
2018-08-17T07:03:11.448Z,18.18
2018-08-17T07:04:11.416Z,18.16
2018-08-17T07:05:11.418Z,18.15
2018-08-17T07:06:11.370Z,18.26
2018-08-17T07:07:11.337Z,18.29
2018-08-17T07:08:11.315Z,18.23
2018-08-17T07:09:11.337Z,18.22
2018-08-17T07:10:11.268Z,18.35
2018-08-17T07:11:11.247Z,18.31
2018-08-17T07:12:11.217Z,18.31
2018-08-17T07:13:11.188Z,18.34
2018-08-17T07:14:11.166Z,18.29
2018-08-17T07:15:11.147Z,18.31
2018-08-17T07:16:11.114Z,18.29
2018-08-17T07:17:11.099Z,18.25
2018-08-17T07:18:11.057Z,18.18
2018-08-17T07:19:11.038Z,18.15
2018-08-17T07:20:11.012Z,18.25
2018-08-17T07:21:10.989Z,18.25
2018-08-17T07:22:10.960Z,18.25
2018-08-17T07:23:10.934Z,18.25
2018-08-17T07:24:10.908Z,18.28
2018-08-17T07:25:10.892Z,18.31
2018-08-17T07:26:10.858Z,18.28
2018-08-17T07:27:10.835Z,18.34
2018-08-17T07:28:10.860Z,18.20
2018-08-17T07:29:10.780Z,18.19
2018-08-17T07:30:10.763Z,18.29
2018-08-17T07:31:10.746Z,18.15
2018-08-17T07:32:10.707Z,18.15
2018-08-17T07:33:10.683Z,18.29
2018-08-17T07:34:10.656Z,18.18
2018-08-17T07:35:10.634Z,18.10
2018-08-17T07:36:10.601Z,18.26
2018-08-17T07:37:10.593Z,18.25
2018-08-17T07:38:10.550Z,18.29
2018-08-17T07:39:10.530Z,18.35
2018-08-17T07:40:10.505Z,18.43
2018-08-17T07:41:10.483Z,18.45
2018-08-17T07:42:10.455Z,18.55
2018-08-17T07:43:10.428Z,18.47
2018-08-17T07:44:10.404Z,18.49
2018-08-17T07:45:10.385Z,18.56
2018-08-17T07:46:10.355Z,18.60
2018-08-17T07:47:10.376Z,18.59
2018-08-17T07:48:10.411Z,18.62
2018-08-17T07:49:10.286Z,18.66
2018-08-17T07:50:10.278Z,18.68
2018-08-17T07:51:10.227Z,18.77
2018-08-17T07:52:10.201Z,18.78
2018-08-17T07:53:10.181Z,18.75
2018-08-17T07:54:10.154Z,18.84
2018-08-17T07:55:10.124Z,18.92
2018-08-17T07:56:10.101Z,18.86
2018-08-17T07:57:10.073Z,18.95
2018-08-17T07:58:10.054Z,18.90
2018-08-17T07:59:10.113Z,18.95
2018-08-17T08:00:10.004Z,18.98
2018-08-17T08:01:09.975Z,18.93
2018-08-17T08:02:09.974Z,19.08
2018-08-17T08:03:09.928Z,19.12
2018-08-17T08:04:09.909Z,19.12
2018-08-17T08:05:09.874Z,19.18
2018-08-17T08:06:09.847Z,19.14
2018-08-17T08:07:09.820Z,19.22
2018-08-17T08:08:09.799Z,19.27
2018-08-17T08:09:09.770Z,19.27
2018-08-17T08:10:09.747Z,19.22
2018-08-17T08:11:09.792Z,19.21
2018-08-17T08:12:09.701Z,19.44
2018-08-17T08:13:09.675Z,19.31
2018-08-17T08:14:09.644Z,19.33
2018-08-17T08:15:09.627Z,19.41
2018-08-17T08:16:09.595Z,19.55
2018-08-17T08:17:09.577Z,19.55
2018-08-17T08:18:09.547Z,19.59
2018-08-17T08:19:09.518Z,19.64
2018-08-17T08:20:09.502Z,19.81
2018-08-17T08:21:09.476Z,19.91
2018-08-17T08:22:09.448Z,19.94
2018-08-17T08:23:09.421Z,20.00
2018-08-17T08:24:09.400Z,20.02
2018-08-17T08:25:09.366Z,20.13
2018-08-17T08:26:09.405Z,20.16
2018-08-17T08:27:09.322Z,20.26
2018-08-17T08:28:09.296Z,20.28
2018-08-17T08:29:09.281Z,20.37
2018-08-17T08:30:09.249Z,20.55
2018-08-17T08:31:09.217Z,20.58
2018-08-17T08:32:09.205Z,20.59
2018-08-17T08:33:09.170Z,20.52
2018-08-17T08:34:09.158Z,20.40
2018-08-17T08:35:09.126Z,20.29
2018-08-17T08:36:09.101Z,20.04
2018-08-17T08:37:09.067Z,20.02
2018-08-17T08:38:09.054Z,20.07
2018-08-17T08:39:09.027Z,20.13
2018-08-17T08:40:08.996Z,20.18
2018-08-17T08:41:08.972Z,20.16
2018-08-17T08:42:08.949Z,20.00
2018-08-17T08:43:08.954Z,19.94
2018-08-17T08:44:08.898Z,19.86
2018-08-17T08:45:08.871Z,19.81
2018-08-17T08:46:08.854Z,19.85
2018-08-17T08:47:08.828Z,19.86
2018-08-17T08:48:08.800Z,19.86
2018-08-17T08:49:08.773Z,19.89
2018-08-17T08:50:08.751Z,19.85
2018-08-17T08:51:08.721Z,19.88
2018-08-17T08:52:08.700Z,19.63
2018-08-17T08:53:08.678Z,19.66
2018-08-17T08:54:08.663Z,19.66
2018-08-17T08:55:08.626Z,19.59
2018-08-17T08:56:08.768Z,19.58
2018-08-17T08:57:08.572Z,19.54
2018-08-17T08:58:08.556Z,19.63
2018-08-17T08:59:08.529Z,19.47
2018-08-17T09:00:08.508Z,19.51
2018-08-17T09:01:08.478Z,19.59
2018-08-17T09:02:08.452Z,19.58
2018-08-17T09:03:08.428Z,19.79
2018-08-17T09:04:08.405Z,19.73
2018-08-17T09:05:08.374Z,19.58
2018-08-17T09:06:08.358Z,19.56
2018-08-17T09:07:08.327Z,19.62
2018-08-17T09:08:08.313Z,19.58
2018-08-17T09:09:08.271Z,19.59
2018-08-17T09:10:08.256Z,19.64
2018-08-17T09:11:08.225Z,19.71
2018-08-17T09:12:08.234Z,19.69
2018-08-17T09:13:08.179Z,19.63
2018-08-17T09:14:08.146Z,19.62
2018-08-17T09:15:08.127Z,19.58
2018-08-17T09:16:08.102Z,19.45
2018-08-17T09:17:08.075Z,19.54
2018-08-17T09:18:08.048Z,19.59
2018-08-17T09:19:08.028Z,19.47
2018-08-17T09:20:08.048Z,19.51
2018-08-17T09:21:07.978Z,19.52
2018-08-17T09:22:07.948Z,19.40
2018-08-17T09:23:07.929Z,19.39
2018-08-17T09:24:07.900Z,19.49
2018-08-17T09:25:07.896Z,19.39
2018-08-17T09:26:07.849Z,19.34
2018-08-17T09:27:07.824Z,19.37
2018-08-17T09:28:07.796Z,19.54
2018-08-17T09:29:07.828Z,19.64
2018-08-17T09:30:07.854Z,19.73
2018-08-17T09:31:07.721Z,19.79
2018-08-17T09:32:07.701Z,19.86
2018-08-17T09:33:07.672Z,19.88
2018-08-17T09:34:07.652Z,19.86
2018-08-17T09:35:07.618Z,20.04
2018-08-17T09:36:07.674Z,20.09
2018-08-17T09:37:07.568Z,20.14
2018-08-17T09:38:07.554Z,20.18
2018-08-17T09:39:07.518Z,20.07
2018-08-17T09:40:07.503Z,20.03
2018-08-17T09:41:07.468Z,20.11
2018-08-17T09:42:07.545Z,20.14
2018-08-17T09:43:07.424Z,20.32
2018-08-17T09:44:07.400Z,20.34
2018-08-17T09:45:07.373Z,20.36
2018-08-17T09:46:07.350Z,20.41
2018-08-17T09:47:07.322Z,20.31
2018-08-17T09:48:07.295Z,20.29
2018-08-17T09:49:07.273Z,20.41
2018-08-17T09:50:07.252Z,20.47
2018-08-17T09:51:07.227Z,20.52
2018-08-17T09:52:07.199Z,20.48
2018-08-17T09:53:07.175Z,20.48
2018-08-17T09:54:07.158Z,20.29
2018-08-17T09:55:07.128Z,20.43
2018-08-17T09:56:07.093Z,20.39
2018-08-17T09:57:07.117Z,20.32
2018-08-17T09:58:07.050Z,20.36
2018-08-17T09:59:07.020Z,20.31
2018-08-17T10:00:07.001Z,20.26
2018-08-17T10:01:06.976Z,20.25
2018-08-17T10:02:06.947Z,20.29
2018-08-17T10:03:06.926Z,20.10
2018-08-17T10:04:06.970Z,20.14
2018-08-17T10:05:06.873Z,20.19
2018-08-17T10:06:06.852Z,20.21
2018-08-17T10:07:06.826Z,20.13
2018-08-17T10:08:06.805Z,20.09
2018-08-17T10:09:06.770Z,19.96
2018-08-17T10:10:06.755Z,20.02
2018-08-17T10:11:06.726Z,19.94
2018-08-17T10:12:06.699Z,19.95
2018-08-17T10:13:06.672Z,19.88
2018-08-17T10:14:06.659Z,19.73
2018-08-17T10:15:06.631Z,19.81
2018-08-17T10:16:06.603Z,19.67
2018-08-17T10:17:06.581Z,19.64
2018-08-17T10:18:06.549Z,19.64
2018-08-17T10:19:06.533Z,19.74
2018-08-17T10:20:06.503Z,19.58
2018-08-17T10:21:06.602Z,19.51
2018-08-17T10:22:06.879Z,19.51
2018-08-17T10:23:06.445Z,19.54
2018-08-17T10:24:06.399Z,19.56
2018-08-17T10:25:06.374Z,19.40
2018-08-17T10:26:06.356Z,19.40
2018-08-17T10:27:06.326Z,19.44
2018-08-17T10:28:06.303Z,19.39
2018-08-17T10:29:06.284Z,19.41
2018-08-17T10:30:06.248Z,19.39
2018-08-17T10:31:06.223Z,19.45
2018-08-17T10:32:06.200Z,19.30
2018-08-17T10:33:06.171Z,19.21
2018-08-17T10:34:06.245Z,19.26
2018-08-17T10:35:06.125Z,19.36
2018-08-17T10:36:06.099Z,19.29
2018-08-17T10:37:06.070Z,19.33
2018-08-17T10:38:06.056Z,19.40
2018-08-17T10:39:06.026Z,19.40
2018-08-17T10:40:05.999Z,19.44
2018-08-17T10:41:05.971Z,19.56
2018-08-17T10:42:05.945Z,19.56
2018-08-17T10:43:05.932Z,19.58
2018-08-17T10:44:05.899Z,19.62
2018-08-17T10:45:05.877Z,19.70
2018-08-17T10:46:05.851Z,19.66
2018-08-17T10:47:05.823Z,19.63
2018-08-17T10:48:05.796Z,19.73
2018-08-17T10:49:05.827Z,19.89
2018-08-17T10:50:05.757Z,19.94
2018-08-17T10:51:05.726Z,20.03
2018-08-17T10:52:05.693Z,20.04
2018-08-17T10:53:05.674Z,20.19
2018-08-17T10:54:05.641Z,20.24
2018-08-17T10:55:05.623Z,20.36
2018-08-17T10:56:05.603Z,20.48
2018-08-17T10:57:05.574Z,20.37
2018-08-17T10:58:05.552Z,20.34
2018-08-17T10:59:05.526Z,20.29
2018-08-17T11:00:05.495Z,20.51
2018-08-17T11:01:05.470Z,20.58
2018-08-17T11:02:05.453Z,20.56
2018-08-17T11:03:05.428Z,20.52
2018-08-17T11:04:05.394Z,20.41
2018-08-17T11:05:05.376Z,20.44
2018-08-17T11:06:05.372Z,20.36
2018-08-17T11:07:05.324Z,20.47
2018-08-17T11:08:05.300Z,20.43
2018-08-17T11:09:05.279Z,20.32
2018-08-17T11:10:05.252Z,20.29
2018-08-17T11:11:05.275Z,20.36
2018-08-17T11:12:05.196Z,20.47
2018-08-17T11:13:05.180Z,20.52
2018-08-17T11:14:05.154Z,20.34
2018-08-17T11:15:05.124Z,20.34
2018-08-17T11:16:05.104Z,20.43
2018-08-17T11:17:05.181Z,20.36
2018-08-17T11:18:05.048Z,20.48
2018-08-17T11:19:05.022Z,20.44
2018-08-17T11:20:05.007Z,20.56
2018-08-17T11:21:04.982Z,20.56
2018-08-17T11:22:04.954Z,20.44
2018-08-17T11:23:04.926Z,20.48
2018-08-17T11:24:04.909Z,20.32
2018-08-17T11:25:04.887Z,20.37
2018-08-17T11:26:04.856Z,20.18
2018-08-17T11:27:04.832Z,20.24
2018-08-17T11:28:04.808Z,20.28
2018-08-17T11:29:04.778Z,20.31
2018-08-17T11:30:04.762Z,20.25
2018-08-17T11:31:04.735Z,20.25
2018-08-17T11:32:04.707Z,20.28
2018-08-17T11:33:04.682Z,20.22
2018-08-17T11:34:04.661Z,20.16
2018-08-17T11:35:04.632Z,19.99
2018-08-17T11:36:04.612Z,19.86
2018-08-17T11:37:04.607Z,19.92
2018-08-17T11:38:04.560Z,19.86
2018-08-17T11:39:04.540Z,19.82
2018-08-17T11:40:04.516Z,19.77
2018-08-17T11:41:04.483Z,19.81
2018-08-17T11:42:04.462Z,19.74
2018-08-17T11:43:04.439Z,19.86
2018-08-17T11:44:04.406Z,20.02
2018-08-17T11:45:04.393Z,20.07
2018-08-17T11:46:04.356Z,20.14
2018-08-17T11:47:04.339Z,20.25
2018-08-17T11:48:04.356Z,20.19
2018-08-17T11:49:04.293Z,20.41
2018-08-17T11:50:04.259Z,20.24
2018-08-17T11:51:04.239Z,20.24
2018-08-17T11:52:04.215Z,20.36
2018-08-17T11:53:04.184Z,20.24
2018-08-17T11:54:04.197Z,20.21
2018-08-17T11:55:04.224Z,20.19
2018-08-17T11:56:04.113Z,20.22
2018-08-17T11:57:04.093Z,20.18
2018-08-17T11:58:04.078Z,20.04
2018-08-17T11:59:04.041Z,20.16
2018-08-17T12:00:04.021Z,20.02
2018-08-17T12:01:04.024Z,19.91
2018-08-17T12:02:03.966Z,19.74
2018-08-17T12:03:03.945Z,19.73
2018-08-17T12:04:03.918Z,19.59
2018-08-17T12:05:03.889Z,19.56
2018-08-17T12:06:03.871Z,19.58
2018-08-17T12:07:03.849Z,19.69
2018-08-17T12:08:03.846Z,19.49
2018-08-17T12:09:03.793Z,19.54
2018-08-17T12:10:03.770Z,19.45
2018-08-17T12:11:03.748Z,19.45
2018-08-17T12:12:03.718Z,19.49
2018-08-17T12:13:03.690Z,19.51
2018-08-17T12:14:03.672Z,19.33
2018-08-17T12:15:03.652Z,19.37
2018-08-17T12:16:03.618Z,19.34
2018-08-17T12:17:03.601Z,19.39
2018-08-17T12:18:03.575Z,19.26
2018-08-17T12:19:03.542Z,19.24
2018-08-17T12:20:03.519Z,19.19
2018-08-17T12:21:03.496Z,19.27
2018-08-17T12:22:03.466Z,19.27
2018-08-17T12:23:03.440Z,19.22
2018-08-17T12:24:03.421Z,19.26
2018-08-17T12:25:03.463Z,19.34
2018-08-17T12:26:03.366Z,19.21
2018-08-17T12:27:03.350Z,19.27
2018-08-17T12:28:03.319Z,19.19
2018-08-17T12:29:03.289Z,19.24
2018-08-17T12:30:03.272Z,19.24
2018-08-17T12:31:03.245Z,19.27
2018-08-17T12:32:03.269Z,19.29
2018-08-17T12:33:03.191Z,19.36
2018-08-17T12:34:03.172Z,19.27
2018-08-17T12:35:03.137Z,19.31
2018-08-17T12:36:03.140Z,19.39
2018-08-17T12:37:03.087Z,19.31
2018-08-17T12:38:03.107Z,19.36
2018-08-17T12:39:03.040Z,19.44
2018-08-17T12:40:03.058Z,19.40
2018-08-17T12:41:02.989Z,19.39
2018-08-17T12:42:02.971Z,19.37
2018-08-17T12:43:02.970Z,19.56
2018-08-17T12:44:02.923Z,19.47
2018-08-17T12:45:02.905Z,19.59
2018-08-17T12:46:02.865Z,19.71
2018-08-17T12:47:02.845Z,19.85
2018-08-17T12:48:02.823Z,19.89
2018-08-17T12:49:02.816Z,19.95
2018-08-17T12:50:02.775Z,20.04
2018-08-17T12:51:02.739Z,20.04
2018-08-17T12:52:02.718Z,20.07